createdAt,value
2024-05-09T00:01:48.033Z,7.00
2024-05-09T00:03:50.051Z,6.90
2024-05-09T00:05:52.087Z,6.90
2024-05-09T00:07:53.969Z,6.90
2024-05-09T00:09:55.964Z,6.90
2024-05-09T00:11:58.005Z,6.80
2024-05-09T00:14:00.076Z,6.70
2024-05-09T00:16:02.089Z,6.70
2024-05-09T00:18:05.215Z,6.70
2024-05-09T00:20:14.401Z,6.70
2024-05-09T00:22:22.387Z,6.70
2024-05-09T00:24:24.284Z,6.70
2024-05-09T00:26:26.236Z,6.70
2024-05-09T00:28:28.223Z,6.70
2024-05-09T00:30:35.062Z,6.70
2024-05-09T00:32:38.887Z,6.80
2024-05-09T00:34:40.913Z,6.90
2024-05-09T00:36:42.811Z,6.80
2024-05-09T00:38:45.712Z,6.70
2024-05-09T00:40:47.741Z,6.70
2024-05-09T00:42:49.689Z,6.70
2024-05-09T00:44:51.596Z,6.60
2024-05-09T00:46:55.497Z,6.60
2024-05-09T00:48:57.647Z,6.60
2024-05-09T00:51:00.600Z,6.70
2024-05-09T00:53:02.703Z,6.70
2024-05-09T00:55:04.771Z,6.70
2024-05-09T00:57:06.714Z,6.60
2024-05-09T00:59:08.912Z,6.60
2024-05-09T01:01:11.202Z,6.60
2024-05-09T01:03:14.366Z,6.50
2024-05-09T01:05:16.798Z,6.50
2024-05-09T01:07:18.779Z,6.50
2024-05-09T01:09:20.720Z,6.50
2024-05-09T01:11:22.863Z,6.60
2024-05-09T01:13:24.890Z,6.50
2024-05-09T01:15:26.858Z,6.50
2024-05-09T01:17:31.568Z,6.40
2024-05-09T01:19:33.746Z,6.40
2024-05-09T01:21:39.954Z,6.40
2024-05-09T01:23:41.907Z,6.40
2024-05-09T01:25:44.524Z,6.40
2024-05-09T01:27:46.588Z,6.50
2024-05-09T01:29:48.497Z,6.50
2024-05-09T01:31:52.469Z,6.60
2024-05-09T01:33:54.540Z,6.60
2024-05-09T01:35:56.512Z,6.60
2024-05-09T01:37:58.502Z,6.60
2024-05-09T01:40:00.532Z,6.50
2024-05-09T01:42:02.502Z,6.50
2024-05-09T01:44:04.465Z,6.50
2024-05-09T01:46:06.388Z,6.40
2024-05-09T01:48:09.350Z,6.40
2024-05-09T01:50:16.248Z,6.60
2024-05-09T01:52:18.381Z,6.60
2024-05-09T01:54:20.300Z,6.70
2024-05-09T01:56:22.310Z,6.70
2024-05-09T01:58:24.632Z,6.60
2024-05-09T02:00:36.294Z,6.60
2024-05-09T02:02:44.570Z,6.60
2024-05-09T02:04:47.848Z,6.60
2024-05-09T02:06:49.844Z,6.60
2024-05-09T02:08:51.725Z,6.60
2024-05-09T02:10:53.970Z,6.50
2024-05-09T02:12:56.018Z,6.50
2024-05-09T02:14:58.668Z,6.50
2024-05-09T02:17:00.606Z,6.50
2024-05-09T02:19:02.763Z,6.40
2024-05-09T02:21:04.955Z,6.50
2024-05-09T02:23:08.872Z,6.50
2024-05-09T02:25:10.939Z,6.50
2024-05-09T02:27:12.848Z,6.50
2024-05-09T02:29:14.973Z,6.50
2024-05-09T02:31:16.996Z,6.50
2024-05-09T02:33:19.133Z,6.50
2024-05-09T02:35:21.227Z,6.50
2024-05-09T02:37:23.195Z,6.50
2024-05-09T02:39:25.136Z,6.50
2024-05-09T02:41:27.242Z,6.50
2024-05-09T02:43:29.283Z,6.60
2024-05-09T02:45:31.208Z,6.70
2024-05-09T02:47:33.270Z,6.80
2024-05-09T02:49:35.437Z,6.90
2024-05-09T02:51:37.404Z,6.90
2024-05-09T02:53:39.370Z,6.90
2024-05-09T02:55:41.925Z,7.00
2024-05-09T02:57:44.094Z,7.00
2024-05-09T02:59:45.983Z,7.00
2024-05-09T03:01:48.041Z,6.90
2024-05-09T03:03:51.648Z,6.90
2024-05-09T03:05:53.765Z,7.00
2024-05-09T03:07:55.787Z,7.00
2024-05-09T03:09:57.717Z,7.20
2024-05-09T03:11:59.767Z,7.30
2024-05-09T03:14:02.268Z,7.30
2024-05-09T03:16:04.461Z,7.30
2024-05-09T03:18:06.956Z,7.30
2024-05-09T03:20:17.392Z,7.30
2024-05-09T03:22:26.169Z,7.40
2024-05-09T03:24:28.081Z,7.50
2024-05-09T03:26:30.112Z,7.60
2024-05-09T03:28:32.043Z,7.60
2024-05-09T03:30:40.445Z,7.60
2024-05-09T03:32:44.848Z,7.60
2024-05-09T03:34:46.854Z,7.70
2024-05-09T03:36:48.788Z,7.60
2024-05-09T03:38:51.216Z,7.80
2024-05-09T03:40:53.239Z,7.90
2024-05-09T03:42:55.180Z,8.00
2024-05-09T03:44:58.473Z,8.10
2024-05-09T03:47:00.411Z,8.10
2024-05-09T03:49:02.389Z,8.20
2024-05-09T03:51:04.657Z,8.30
2024-05-09T03:53:09.738Z,8.30
2024-05-09T03:55:11.668Z,8.20
2024-05-09T03:57:13.602Z,8.20
2024-05-09T03:59:15.569Z,8.40
2024-05-09T04:01:17.551Z,8.50
2024-05-09T04:03:19.819Z,8.50
2024-05-09T04:05:21.937Z,8.50
2024-05-09T04:07:23.888Z,8.50
2024-05-09T04:09:25.861Z,8.60
2024-05-09T04:11:27.840Z,8.50
2024-05-09T04:13:29.843Z,8.60
2024-05-09T04:15:32.138Z,8.70
2024-05-09T04:17:34.707Z,8.50
2024-05-09T04:19:36.780Z,8.70
2024-05-09T04:21:38.757Z,8.80
2024-05-09T04:23:40.860Z,9.00
2024-05-09T04:25:44.752Z,9.00
2024-05-09T04:27:47.379Z,8.80
2024-05-09T04:29:49.292Z,8.60
2024-05-09T04:31:51.318Z,8.60
2024-05-09T04:33:53.517Z,8.60
2024-05-09T04:35:55.506Z,8.60
2024-05-09T04:37:57.435Z,8.60
2024-05-09T04:39:59.454Z,8.60
2024-05-09T04:42:01.440Z,8.80
2024-05-09T04:44:03.419Z,8.90
2024-05-09T04:46:05.394Z,9.10
2024-05-09T04:48:07.792Z,9.30
2024-05-09T04:50:11.876Z,9.30
2024-05-09T04:52:16.635Z,9.40
2024-05-09T04:54:26.266Z,9.70
2024-05-09T04:56:35.963Z,9.60
2024-05-09T04:58:37.968Z,9.60
2024-05-09T05:00:40.939Z,9.60
2024-05-09T05:02:43.649Z,9.50
2024-05-09T05:04:45.843Z,9.70
2024-05-09T05:06:47.877Z,9.80
2024-05-09T05:08:49.907Z,10.00
2024-05-09T05:10:51.972Z,10.10
2024-05-09T05:13:12.574Z,10.40
2024-05-09T05:15:14.549Z,10.40
2024-05-09T05:17:16.544Z,10.70
2024-05-09T05:19:18.612Z,10.80
2024-05-09T05:21:20.981Z,11.10
2024-05-09T05:23:23.369Z,11.40
2024-05-09T05:25:25.728Z,11.20
2024-05-09T05:27:27.650Z,11.40
2024-05-09T05:29:29.596Z,11.60
2024-05-09T05:31:31.551Z,11.90
2024-05-09T05:33:33.619Z,12.20
2024-05-09T05:35:36.290Z,12.20
2024-05-09T05:37:38.198Z,12.50
2024-05-09T05:39:40.094Z,12.70
2024-05-09T05:41:42.148Z,12.70
2024-05-09T05:43:44.356Z,12.90
2024-05-09T05:45:46.658Z,12.80
2024-05-09T05:47:48.726Z,12.80
2024-05-09T05:49:50.792Z,12.90
2024-05-09T05:51:52.735Z,12.80
2024-05-09T05:53:55.326Z,12.90
2024-05-09T05:55:57.239Z,13.10
2024-05-09T05:57:59.645Z,13.50
2024-05-09T06:00:01.572Z,13.30
2024-05-09T06:02:03.593Z,13.60
2024-05-09T06:04:05.686Z,13.50
2024-05-09T06:06:07.778Z,13.50
2024-05-09T06:08:09.874Z,13.60
2024-05-09T06:10:17.585Z,13.90
2024-05-09T06:12:23.809Z,13.60
2024-05-09T06:14:25.853Z,13.80
2024-05-09T06:16:27.767Z,13.60
2024-05-09T06:18:30.025Z,13.70
2024-05-09T06:20:36.414Z,13.80
2024-05-09T06:22:40.063Z,13.90
2024-05-09T06:24:41.977Z,14.10
2024-05-09T06:26:44.788Z,14.30
2024-05-09T06:28:46.832Z,14.40
2024-05-09T06:30:48.762Z,14.60
2024-05-09T06:32:50.773Z,14.70
2024-05-09T06:34:52.812Z,14.60
2024-05-09T06:36:54.765Z,14.70
2024-05-09T06:38:56.652Z,14.80
2024-05-09T06:40:58.754Z,14.90
2024-05-09T06:43:00.834Z,14.70
2024-05-09T06:45:02.810Z,14.20
2024-05-09T06:47:04.850Z,14.40
2024-05-09T06:49:08.984Z,14.10
2024-05-09T06:51:11.120Z,14.20
2024-05-09T06:53:17.205Z,14.00
2024-05-09T06:55:19.307Z,14.20
2024-05-09T06:57:21.950Z,14.30
2024-05-09T06:59:23.932Z,14.20
2024-05-09T07:01:25.976Z,14.10
2024-05-09T07:03:28.093Z,14.00
2024-05-09T07:05:30.124Z,14.30
2024-05-09T07:07:32.097Z,14.30
2024-05-09T07:09:34.092Z,14.50
2024-05-09T07:11:37.623Z,14.90
2024-05-09T07:13:39.669Z,14.60
2024-05-09T07:15:42.027Z,14.60
2024-05-09T07:17:44.105Z,14.80
2024-05-09T07:19:46.278Z,14.70
2024-05-09T07:21:48.267Z,14.80
2024-05-09T07:23:50.322Z,14.90
2024-05-09T07:25:52.404Z,14.70
2024-05-09T07:27:54.346Z,14.90
2024-05-09T07:29:56.573Z,15.20
2024-05-09T07:31:58.585Z,14.90
2024-05-09T07:34:01.290Z,15.00
2024-05-09T07:36:03.354Z,15.30
2024-05-09T07:38:05.338Z,15.30
2024-05-09T07:40:11.925Z,15.30
2024-05-09T07:42:16.542Z,15.50
2024-05-09T07:44:18.524Z,15.60
2024-05-09T07:47:14.166Z,15.10
2024-05-09T07:53:35.480Z,14.60
2024-05-09T07:55:15.032Z,14.90
2024-05-09T07:57:17.201Z,14.90
2024-05-09T07:59:19.245Z,15.40
2024-05-09T08:01:21.549Z,14.70
2024-05-09T08:03:24.027Z,15.00
2024-05-09T08:05:26.274Z,15.50
2024-05-09T08:07:28.237Z,15.70
2024-05-09T08:09:30.181Z,15.40
2024-05-09T08:11:32.311Z,15.20
2024-05-09T08:13:34.289Z,15.00
2024-05-09T08:15:37.956Z,15.40
2024-05-09T08:17:40.043Z,15.50
2024-05-09T08:19:42.142Z,15.80
2024-05-09T08:21:44.132Z,16.50
2024-05-09T08:23:46.056Z,17.00
2024-05-09T08:25:48.912Z,16.70
2024-05-09T08:27:50.836Z,16.80
2024-05-09T08:29:52.959Z,16.50
2024-05-09T08:31:59.246Z,16.30
2024-05-09T08:34:01.350Z,16.40
2024-05-09T08:36:03.375Z,15.90
2024-05-09T08:38:06.188Z,16.10
2024-05-09T08:40:11.164Z,15.80
2024-05-09T08:42:18.735Z,15.30
2024-05-09T08:44:21.231Z,15.50
2024-05-09T08:46:23.459Z,15.90
2024-05-09T08:48:25.760Z,15.70
2024-05-09T08:50:35.642Z,16.40
2024-05-09T08:52:40.537Z,16.10
2024-05-09T08:54:42.484Z,16.60
2024-05-09T08:56:46.343Z,17.30
2024-05-09T08:58:56.316Z,17.50
2024-05-09T09:00:58.411Z,17.80
2024-05-09T09:03:01.479Z,17.70
2024-05-09T09:05:11.405Z,17.90
2024-05-09T09:07:14.355Z,17.00
2024-05-09T09:09:16.543Z,17.10
2024-05-09T09:11:18.617Z,17.30
2024-05-09T09:13:20.637Z,16.80
2024-05-09T09:15:23.679Z,16.50
2024-05-09T09:17:25.681Z,16.20
2024-05-09T09:19:27.662Z,16.40
2024-05-09T09:21:29.859Z,16.80
2024-05-09T09:23:31.928Z,16.70
2024-05-09T09:25:33.887Z,16.40
2024-05-09T09:27:35.873Z,16.40
2024-05-09T09:29:39.417Z,16.30
2024-05-09T09:31:42.216Z,16.10
2024-05-09T09:33:44.333Z,16.20
2024-05-09T09:35:46.587Z,16.10
2024-05-09T09:37:50.685Z,16.30
2024-05-09T09:39:53.001Z,16.40
2024-05-09T09:41:56.429Z,15.90
2024-05-09T09:43:58.792Z,15.70
2024-05-09T09:46:00.948Z,16.10
2024-05-09T09:48:03.366Z,15.70
2024-05-09T09:50:11.829Z,16.30
2024-05-09T09:52:17.110Z,16.70
2024-05-09T09:54:22.406Z,16.60
2024-05-09T09:56:26.137Z,16.40
2024-05-09T09:58:29.392Z,16.30
2024-05-09T10:00:33.702Z,16.10
2024-05-09T10:02:36.186Z,16.20
2024-05-09T10:04:38.525Z,16.00
2024-05-09T10:06:42.780Z,16.30
2024-05-09T10:08:45.915Z,16.40
2024-05-09T10:10:48.214Z,16.60
2024-05-09T10:12:57.841Z,16.00
2024-05-09T10:15:06.275Z,16.20
2024-05-09T10:17:09.579Z,16.80
2024-05-09T10:19:23.795Z,17.00
2024-05-09T10:21:26.035Z,17.20
2024-05-09T10:23:28.916Z,17.10
2024-05-09T10:25:30.991Z,17.00
2024-05-09T10:27:33.161Z,16.40
2024-05-09T10:29:35.077Z,16.40
2024-05-09T10:31:38.604Z,15.90
2024-05-09T10:33:45.679Z,15.90
2024-05-09T10:35:51.513Z,16.30
2024-05-09T10:37:53.509Z,16.60
2024-05-09T10:39:57.654Z,16.60
2024-05-09T10:41:59.830Z,17.00
2024-05-09T10:44:01.739Z,17.20
2024-05-09T10:46:04.545Z,16.80
2024-05-09T10:48:07.058Z,16.70
2024-05-09T10:50:18.296Z,16.90
2024-05-09T10:52:27.293Z,17.00
2024-05-09T10:54:35.857Z,16.60
2024-05-09T10:56:37.781Z,16.20
2024-05-09T10:58:39.710Z,16.80
2024-05-09T11:00:41.730Z,17.20
2024-05-09T11:02:44.307Z,16.80
2024-05-09T11:04:46.594Z,16.40
2024-05-09T11:06:48.787Z,16.40
2024-05-09T11:08:50.813Z,16.10
2024-05-09T11:10:53.850Z,16.10
2024-05-09T11:12:55.873Z,16.10
2024-05-09T11:14:57.819Z,15.90
2024-05-09T11:17:06.139Z,15.60
2024-05-09T11:19:12.251Z,16.10
2024-05-09T11:21:14.311Z,16.20
2024-05-09T11:23:16.266Z,16.10
2024-05-09T11:25:18.350Z,15.90
2024-05-09T11:27:20.855Z,16.00
2024-05-09T11:29:22.791Z,15.90
2024-05-09T11:31:24.963Z,16.10
2024-05-09T11:33:30.325Z,16.10
2024-05-09T11:35:33.301Z,15.90
2024-05-09T11:37:37.227Z,16.40
2024-05-09T11:39:39.309Z,16.40
2024-05-09T11:41:41.215Z,16.70
2024-05-09T11:43:43.137Z,16.40
2024-05-09T11:45:45.086Z,16.50
2024-05-09T11:47:47.102Z,16.40
2024-05-09T11:49:49.120Z,16.60
2024-05-09T11:51:51.088Z,16.50
2024-05-09T11:53:53.039Z,16.60
2024-05-09T11:55:54.946Z,16.10
2024-05-09T11:57:57.408Z,16.20
2024-05-09T11:59:59.397Z,16.30
2024-05-09T12:02:01.440Z,16.10
2024-05-09T12:04:04.340Z,16.20
2024-05-09T12:06:06.500Z,16.30
2024-05-09T12:08:09.337Z,16.40
2024-05-09T12:10:16.599Z,16.40
2024-05-09T12:12:21.464Z,16.60
2024-05-09T12:14:23.367Z,16.60
2024-05-09T12:16:25.505Z,17.00
2024-05-09T12:18:27.571Z,16.60
2024-05-09T12:20:36.194Z,16.80
2024-05-09T12:22:40.875Z,16.90
2024-05-09T12:24:42.783Z,16.80
2024-05-09T12:26:44.731Z,17.00
2024-05-09T12:28:47.167Z,16.70
2024-05-09T12:30:50.837Z,17.00
2024-05-09T12:32:53.099Z,17.60
2024-05-09T12:34:55.194Z,17.70
2024-05-09T12:36:57.203Z,17.80
2024-05-09T12:38:59.244Z,18.20
2024-05-09T12:41:01.205Z,17.90
2024-05-09T12:43:03.265Z,17.40
2024-05-09T12:45:05.419Z,17.20
2024-05-09T12:47:07.369Z,17.70
2024-05-09T12:49:14.984Z,17.40
2024-05-09T12:51:18.254Z,17.90
2024-05-09T12:53:20.174Z,18.00
2024-05-09T12:55:23.276Z,17.40
2024-05-09T12:57:25.760Z,17.40
2024-05-09T12:59:27.760Z,17.20
2024-05-09T13:01:29.993Z,17.30
2024-05-09T13:03:32.097Z,17.30
2024-05-09T13:05:34.321Z,16.70
2024-05-09T13:07:36.423Z,16.70
2024-05-09T13:09:38.445Z,17.00
2024-05-09T13:11:40.580Z,16.80
2024-05-09T13:13:42.441Z,17.00
2024-05-09T13:15:44.472Z,16.90
2024-05-09T13:17:46.516Z,16.80
2024-05-09T13:19:48.488Z,16.50
2024-05-09T13:21:50.506Z,16.40
2024-05-09T13:23:52.422Z,16.80
2024-05-09T13:25:54.333Z,16.30
2024-05-09T13:27:56.747Z,16.60
2024-05-09T13:29:59.019Z,17.00
2024-05-09T13:32:01.026Z,17.00
2024-05-09T13:34:03.092Z,17.10
2024-05-09T13:36:05.345Z,17.00
2024-05-09T13:38:07.398Z,16.90
2024-05-09T13:40:12.140Z,17.30
2024-05-09T13:42:17.573Z,17.90
2024-05-09T13:44:19.528Z,17.80
2024-05-09T13:46:21.635Z,17.70
2024-05-09T13:48:24.002Z,17.10
2024-05-09T13:50:33.360Z,17.60
2024-05-09T13:52:37.951Z,17.90
2024-05-09T13:54:39.878Z,17.40
2024-05-09T13:56:41.904Z,18.30
2024-05-09T13:58:44.054Z,18.80
2024-05-09T14:00:48.929Z,18.70
2024-05-09T14:02:51.489Z,18.90
2024-05-09T14:04:53.603Z,19.40
2024-05-09T14:06:55.635Z,19.90
2024-05-09T14:08:57.620Z,20.00
2024-05-09T14:10:59.619Z,20.30
2024-05-09T14:13:01.827Z,20.30
2024-05-09T14:15:03.911Z,20.10
2024-05-09T14:17:05.931Z,20.70
2024-05-09T14:19:07.896Z,22.00
2024-05-09T14:21:09.901Z,21.40
2024-05-09T14:23:11.899Z,21.20
2024-05-09T14:25:14.076Z,20.20
2024-05-09T14:27:16.288Z,20.30
2024-05-09T14:29:18.197Z,20.30
2024-05-09T14:31:20.714Z,20.00
2024-05-09T14:33:26.830Z,21.50
2024-05-09T14:35:28.979Z,21.50
2024-05-09T14:37:30.937Z,21.60
2024-05-09T14:39:32.879Z,19.90
2024-05-09T14:41:34.813Z,19.70
2024-05-09T14:43:36.833Z,20.00
2024-05-09T14:45:38.971Z,21.20
2024-05-09T14:47:44.162Z,20.80
2024-05-09T14:49:46.290Z,19.20
2024-05-09T14:51:48.459Z,18.80
2024-05-09T14:53:50.397Z,19.90
2024-05-09T14:55:52.370Z,20.50
2024-05-09T14:57:54.717Z,19.90
2024-05-09T14:59:56.629Z,19.30
2024-05-09T15:01:58.897Z,20.10
2024-05-09T15:04:01.040Z,21.20
2024-05-09T15:06:03.255Z,21.60
2024-05-09T15:08:10.040Z,20.70
2024-05-09T15:10:20.330Z,20.00
2024-05-09T15:12:30.140Z,20.60
2024-05-09T15:14:32.074Z,21.10
2024-05-09T15:16:35.216Z,20.20
2024-05-09T15:18:38.275Z,19.20
2024-05-09T15:20:41.535Z,19.80
2024-05-09T15:22:43.595Z,20.60
2024-05-09T15:24:46.442Z,21.10
2024-05-09T15:26:48.509Z,20.70
2024-05-09T15:28:50.403Z,21.20
2024-05-09T15:30:52.461Z,21.20
2024-05-09T15:32:54.640Z,20.70
2024-05-09T15:34:56.634Z,20.30
2024-05-09T15:36:58.898Z,20.80
2024-05-09T15:39:01.200Z,19.90
2024-05-09T15:41:03.207Z,18.90
2024-05-09T15:43:05.735Z,19.20
2024-05-09T15:45:07.982Z,19.10
2024-05-09T15:47:09.976Z,20.00
2024-05-09T15:49:12.176Z,20.20
2024-05-09T15:51:14.236Z,20.20
2024-05-09T15:53:24.579Z,19.70
2024-05-09T15:55:34.475Z,20.20
2024-05-09T15:57:36.791Z,19.50
2024-05-09T15:59:38.788Z,19.40
2024-05-09T16:01:40.929Z,19.10
2024-05-09T16:03:43.182Z,18.70
2024-05-09T16:05:46.712Z,19.30
2024-05-09T16:07:49.509Z,20.00
2024-05-09T16:09:51.470Z,19.60
2024-05-09T16:11:53.463Z,19.00
2024-05-09T16:13:55.405Z,19.10
2024-05-09T16:15:57.547Z,18.30
2024-05-09T16:18:00.159Z,18.20
2024-05-09T16:20:03.882Z,18.10
2024-05-09T16:22:07.129Z,17.90
2024-05-09T16:24:09.164Z,18.10
2024-05-09T16:26:11.103Z,17.90
2024-05-09T16:28:13.305Z,17.50
2024-05-09T16:30:24.164Z,17.50
2024-05-09T16:32:30.259Z,18.00
2024-05-09T16:34:32.311Z,17.70
2024-05-09T16:36:34.374Z,17.40
2024-05-09T16:38:36.331Z,17.50
2024-05-09T16:40:40.741Z,17.30
2024-05-09T16:42:43.498Z,17.40
2024-05-09T16:44:45.438Z,17.30
2024-05-09T16:46:47.661Z,17.20
2024-05-09T16:48:50.422Z,16.80
2024-05-09T16:50:52.465Z,16.80
2024-05-09T16:52:54.760Z,16.60
2024-05-09T16:54:56.710Z,16.40
2024-05-09T16:56:58.988Z,16.20
2024-05-09T16:59:00.926Z,15.90
2024-05-09T17:01:02.956Z,15.70
2024-05-09T17:03:05.344Z,15.50
2024-05-09T17:05:07.485Z,15.20
2024-05-09T17:07:09.759Z,14.80
2024-05-09T17:09:15.456Z,14.60
2024-05-09T17:11:17.752Z,14.40
2024-05-09T17:13:20.236Z,14.20
2024-05-09T17:15:22.407Z,14.10
2024-05-09T17:17:24.572Z,14.00
2024-05-09T17:19:26.965Z,13.90
2024-05-09T17:21:28.949Z,13.80
2024-05-09T17:23:32.632Z,13.70
2024-05-09T17:25:36.848Z,13.60
2024-05-09T17:27:38.778Z,13.50
2024-05-09T17:29:42.138Z,13.40
2024-05-09T17:31:44.158Z,13.30
2024-05-09T17:33:46.309Z,13.20
2024-05-09T17:35:50.828Z,13.10
2024-05-09T17:37:53.036Z,12.90
2024-05-09T17:39:55.386Z,12.80
2024-05-09T17:41:57.312Z,12.60
2024-05-09T17:43:59.334Z,12.50
2024-05-09T17:46:01.368Z,12.40
2024-05-09T17:48:03.688Z,12.40
2024-05-09T17:50:11.727Z,12.40
2024-05-09T17:52:19.009Z,12.20
2024-05-09T17:54:21.373Z,12.10
2024-05-09T17:56:23.380Z,12.20
2024-05-09T17:58:25.376Z,12.20
2024-05-09T18:00:36.806Z,12.10
2024-05-09T18:02:43.100Z,12.00
2024-05-09T18:04:45.429Z,11.90
2024-05-09T18:06:49.654Z,11.90
2024-05-09T18:08:52.325Z,11.90
2024-05-09T18:10:57.088Z,11.80
2024-05-09T18:12:59.010Z,11.80
2024-05-09T18:15:00.960Z,11.70
2024-05-09T18:17:03.319Z,11.60
2024-05-09T18:19:05.490Z,11.60
2024-05-09T18:21:07.570Z,11.40
2024-05-09T18:23:09.803Z,11.40
2024-05-09T18:25:11.818Z,11.40
2024-05-09T18:27:13.796Z,11.30
2024-05-09T18:29:18.517Z,11.20
2024-05-09T18:31:23.488Z,11.30
2024-05-09T18:33:25.601Z,11.20
2024-05-09T18:35:27.610Z,11.10
2024-05-09T18:37:29.773Z,11.00
2024-05-09T18:39:32.020Z,11.00
2024-05-09T18:41:34.105Z,11.00
2024-05-09T18:43:42.252Z,11.00
2024-05-09T18:45:47.577Z,11.00
2024-05-09T18:47:49.951Z,11.00
2024-05-09T18:49:52.054Z,10.80
2024-05-09T18:51:54.102Z,10.80
2024-05-09T18:53:56.080Z,10.70
2024-05-09T18:55:58.052Z,10.70
2024-05-09T18:58:00.099Z,10.60
2024-05-09T19:00:02.824Z,10.60
2024-05-09T19:02:06.479Z,10.60
2024-05-09T19:04:08.815Z,10.50
2024-05-09T19:06:11.088Z,10.50
2024-05-09T19:08:13.212Z,10.50
2024-05-09T19:10:22.131Z,10.40
2024-05-09T19:12:27.642Z,10.40
2024-05-09T19:14:29.607Z,10.50
2024-05-09T19:16:31.777Z,10.50
2024-05-09T19:18:34.319Z,10.40
2024-05-09T19:20:37.345Z,10.40
2024-05-09T19:22:39.870Z,10.30
2024-05-09T19:24:41.963Z,10.30
2024-05-09T19:26:44.945Z,10.30
2024-05-09T19:28:46.930Z,10.20
2024-05-09T19:30:48.904Z,10.20
2024-05-09T19:32:51.382Z,10.20
2024-05-09T19:34:53.410Z,10.20
2024-05-09T19:36:55.794Z,10.30
2024-05-09T19:38:58.121Z,10.30
2024-05-09T19:41:00.137Z,10.30
2024-05-09T19:43:03.222Z,10.20
2024-05-09T19:45:05.898Z,10.30
2024-05-09T19:47:07.978Z,10.30
2024-05-09T19:49:10.090Z,10.20
2024-05-09T19:51:12.174Z,10.20
2024-05-09T19:53:14.530Z,10.10
2024-05-09T19:55:16.686Z,10.10
2024-05-09T19:57:19.460Z,10.00
2024-05-09T19:59:21.404Z,10.10
2024-05-09T20:01:23.491Z,10.20
2024-05-09T20:03:25.503Z,10.20
2024-05-09T20:05:28.742Z,10.10
2024-05-09T20:07:32.213Z,9.80
2024-05-09T20:09:35.191Z,9.70
2024-05-09T20:11:38.928Z,9.70
2024-05-09T20:13:41.061Z,9.80
2024-05-09T20:15:42.992Z,9.80
2024-05-09T20:17:45.074Z,9.90
2024-05-09T20:19:47.239Z,10.00
2024-05-09T20:21:50.174Z,9.90
2024-05-09T20:23:52.305Z,9.80
2024-05-09T20:25:54.221Z,9.70
2024-05-09T20:27:56.280Z,9.60
2024-05-09T20:29:58.283Z,9.60
2024-05-09T20:32:00.253Z,9.60
2024-05-09T20:34:02.187Z,9.60
2024-05-09T20:36:05.571Z,9.60
2024-05-09T20:38:07.587Z,9.50
2024-05-09T20:40:15.401Z,9.40
2024-05-09T20:42:20.678Z,9.40
2024-05-09T20:44:22.572Z,9.40
2024-05-09T20:46:24.518Z,9.40
2024-05-09T20:48:26.755Z,9.40
2024-05-09T20:50:36.810Z,9.30
2024-05-09T20:52:42.250Z,9.20
2024-05-09T20:54:44.262Z,9.10
2024-05-09T20:56:46.185Z,9.10
2024-05-09T20:58:48.314Z,9.10
2024-05-09T21:00:50.389Z,9.00
2024-05-09T21:02:52.417Z,8.90
2024-05-09T21:04:54.534Z,8.90
2024-05-09T21:06:56.693Z,8.80
2024-05-09T21:08:58.833Z,8.70
2024-05-09T21:11:00.806Z,8.80
2024-05-09T21:13:03.670Z,8.80
2024-05-09T21:15:06.361Z,8.80
2024-05-09T21:17:08.527Z,8.70
2024-05-09T21:19:10.604Z,8.60
2024-05-09T21:21:12.515Z,8.50
2024-05-09T21:23:14.448Z,8.40
2024-05-09T21:25:16.458Z,8.40
2024-05-09T21:27:18.767Z,8.40
2024-05-09T21:29:20.618Z,8.40
2024-05-09T21:31:22.609Z,8.40
2024-05-09T21:33:25.224Z,8.30
2024-05-09T21:35:27.334Z,8.30
2024-05-09T21:37:29.268Z,8.30
2024-05-09T21:39:31.267Z,8.30
2024-05-09T21:41:33.217Z,8.30
2024-05-09T21:43:35.203Z,8.30
2024-05-09T21:45:37.488Z,8.30
2024-05-09T21:47:39.739Z,8.30
2024-05-09T21:49:41.771Z,8.20
2024-05-09T21:51:43.734Z,8.10
2024-05-09T21:53:45.651Z,8.10
2024-05-09T21:55:47.592Z,8.10
2024-05-09T21:57:49.551Z,8.00
2024-05-09T21:59:51.533Z,8.00
2024-05-09T22:01:55.194Z,8.00
2024-05-09T22:03:57.442Z,7.90
2024-05-09T22:05:59.450Z,7.90
2024-05-09T22:08:01.401Z,7.80
2024-05-09T22:10:05.084Z,7.80
2024-05-09T22:12:09.893Z,7.80
2024-05-09T22:14:11.866Z,7.80
2024-05-09T22:16:13.822Z,7.80
2024-05-09T22:18:15.816Z,7.80
2024-05-09T22:20:25.121Z,7.80
2024-05-09T22:22:31.035Z,7.70
2024-05-09T22:24:33.002Z,7.70
2024-05-09T22:26:38.021Z,7.60
2024-05-09T22:28:39.912Z,7.60
2024-05-09T22:30:42.978Z,7.60
2024-05-09T22:32:44.924Z,7.40
2024-05-09T22:34:47.123Z,7.40
2024-05-09T22:36:49.233Z,7.40
2024-05-09T22:38:51.211Z,7.40
2024-05-09T22:40:53.276Z,7.40
2024-05-09T22:42:55.373Z,7.30
2024-05-09T22:44:57.415Z,7.30
2024-05-09T22:46:59.363Z,7.20
2024-05-09T22:49:01.495Z,7.20
2024-05-09T22:51:03.780Z,7.20
2024-05-09T22:53:05.768Z,7.20
2024-05-09T22:55:07.851Z,7.20
2024-05-09T22:57:10.024Z,7.30
2024-05-09T22:59:11.947Z,7.20
2024-05-09T23:01:16.753Z,7.10
2024-05-09T23:03:21.757Z,7.10
2024-05-09T23:05:24.325Z,7.00
2024-05-09T23:07:26.419Z,7.00
2024-05-09T23:09:28.365Z,6.90
2024-05-09T23:11:30.274Z,6.90
2024-05-09T23:13:33.373Z,6.90
2024-05-09T23:15:36.255Z,6.90
2024-05-09T23:17:38.345Z,6.90
2024-05-09T23:19:40.326Z,6.70
2024-05-09T23:21:42.339Z,6.80
2024-05-09T23:23:44.285Z,6.80
2024-05-09T23:25:46.232Z,6.70
2024-05-09T23:27:48.181Z,6.60
2024-05-09T23:29:50.100Z,6.60
2024-05-09T23:31:52.066Z,6.50
2024-05-09T23:33:57.652Z,6.50
2024-05-09T23:35:59.710Z,6.60
2024-05-09T23:38:01.604Z,6.50
2024-05-09T23:40:06.821Z,6.50
2024-05-09T23:42:08.949Z,6.50
2024-05-09T23:44:10.837Z,6.40
2024-05-09T23:46:13.114Z,6.30
2024-05-09T23:48:15.261Z,6.30
2024-05-09T23:50:23.943Z,6.30
2024-05-09T23:52:33.065Z,6.20
2024-05-09T23:54:35.083Z,6.20
2024-05-09T23:56:37.029Z,6.20
2024-05-09T23:58:38.994Z,6.20
